sensor_id;sensor_type;location;lat;lon;timestamp;P1;durP1;ratioP1;P2;durP2;ratioP2
33150;SDS011;19508;42.578;23.416;2023-07-24T00:02:08;16.27;;;9.77;;
33150;SDS011;19508;42.578;23.416;2023-07-24T00:04:33;19.42;;;9.77;;
33150;SDS011;19508;42.578;23.416;2023-07-24T00:07:02;19.33;;;9.40;;
33150;SDS011;19508;42.578;23.416;2023-07-24T00:09:27;16.55;;;9.38;;
33150;SDS011;19508;42.578;23.416;2023-07-24T00:11:53;17.45;;;9.50;;
33150;SDS011;19508;42.578;23.416;2023-07-24T00:14:19;21.33;;;9.90;;
33150;SDS011;19508;42.578;23.416;2023-07-24T00:16:44;25.50;;;10.63;;
33150;SDS011;19508;42.578;23.416;2023-07-24T00:19:10;16.42;;;9.20;;
33150;SDS011;19508;42.578;23.416;2023-07-24T00:21:35;17.55;;;9.80;;
33150;SDS011;19508;42.578;23.416;2023-07-24T00:24:01;17.25;;;9.85;;
33150;SDS011;19508;42.578;23.416;2023-07-24T00:26:26;34.10;;;10.25;;
33150;SDS011;19508;42.578;23.416;2023-07-24T00:28:51;20.88;;;10.18;;
33150;SDS011;19508;42.578;23.416;2023-07-24T00:31:18;21.13;;;9.15;;
33150;SDS011;19508;42.578;23.416;2023-07-24T00:33:44;16.25;;;9.20;;
33150;SDS011;19508;42.578;23.416;2023-07-24T00:36:09;22.02;;;9.73;;
33150;SDS011;19508;42.578;23.416;2023-07-24T00:38:34;16.73;;;10.07;;
33150;SDS011;19508;42.578;23.416;2023-07-24T00:41:00;16.05;;;9.15;;
33150;SDS011;19508;42.578;23.416;2023-07-24T00:43:25;20.80;;;9.60;;
33150;SDS011;19508;42.578;23.416;2023-07-24T00:45:51;26.08;;;10.00;;
33150;SDS011;19508;42.578;23.416;2023-07-24T00:48:16;19.50;;;9.98;;
33150;SDS011;19508;42.578;23.416;2023-07-24T00:50:42;20.98;;;10.75;;
33150;SDS011;19508;42.578;23.416;2023-07-24T00:53:23;18.92;;;10.38;;
33150;SDS011;19508;42.578;23.416;2023-07-24T00:55:49;23.25;;;10.57;;
33150;SDS011;19508;42.578;23.416;2023-07-24T00:58:14;18.33;;;9.95;;
33150;SDS011;19508;42.578;23.416;2023-07-24T01:00:41;21.23;;;11.02;;
33150;SDS011;19508;42.578;23.416;2023-07-24T01:03:07;20.35;;;11.02;;
33150;SDS011;19508;42.578;23.416;2023-07-24T01:05:33;18.50;;;10.32;;
33150;SDS011;19508;42.578;23.416;2023-07-24T01:07:58;20.38;;;10.18;;
33150;SDS011;19508;42.578;23.416;2023-07-24T01:10:23;20.27;;;10.43;;
33150;SDS011;19508;42.578;23.416;2023-07-24T01:15:33;21.27;;;10.00;;
33150;SDS011;19508;42.578;23.416;2023-07-24T01:18:09;20.10;;;10.38;;
33150;SDS011;19508;42.578;23.416;2023-07-24T01:20:37;19.15;;;10.13;;
33150;SDS011;19508;42.578;23.416;2023-07-24T01:23:21;19.45;;;9.93;;
33150;SDS011;19508;42.578;23.416;2023-07-24T01:25:58;20.85;;;9.45;;
33150;SDS011;19508;42.578;23.416;2023-07-24T01:28:25;20.45;;;10.93;;
33150;SDS011;19508;42.578;23.416;2023-07-24T01:30:51;20.63;;;9.93;;
33150;SDS011;19508;42.578;23.416;2023-07-24T01:33:17;20.83;;;10.32;;
33150;SDS011;19508;42.578;23.416;2023-07-24T01:35:43;15.75;;;9.70;;
33150;SDS011;19508;42.578;23.416;2023-07-24T01:38:13;20.40;;;9.63;;
33150;SDS011;19508;42.578;23.416;2023-07-24T01:40:39;16.70;;;9.75;;
33150;SDS011;19508;42.578;23.416;2023-07-24T01:43:05;20.52;;;10.15;;
33150;SDS011;19508;42.578;23.416;2023-07-24T01:45:31;27.88;;;10.85;;
33150;SDS011;19508;42.578;23.416;2023-07-24T01:47:57;22.48;;;11.48;;
33150;SDS011;19508;42.578;23.416;2023-07-24T01:50:22;18.92;;;10.75;;
33150;SDS011;19508;42.578;23.416;2023-07-24T01:52:48;17.60;;;9.55;;
33150;SDS011;19508;42.578;23.416;2023-07-24T01:55:13;20.52;;;10.88;;
33150;SDS011;19508;42.578;23.416;2023-07-24T01:57:38;17.83;;;10.88;;
33150;SDS011;19508;42.578;23.416;2023-07-24T02:00:04;18.75;;;10.27;;
33150;SDS011;19508;42.578;23.416;2023-07-24T02:02:31;17.42;;;9.80;;
33150;SDS011;19508;42.578;23.416;2023-07-24T02:04:56;20.15;;;11.05;;
33150;SDS011;19508;42.578;23.416;2023-07-24T02:07:21;21.25;;;10.30;;
33150;SDS011;19508;42.578;23.416;2023-07-24T02:09:47;23.85;;;11.27;;
33150;SDS011;19508;42.578;23.416;2023-07-24T02:12:12;20.88;;;11.25;;
33150;SDS011;19508;42.578;23.416;2023-07-24T02:14:37;19.90;;;10.43;;
33150;SDS011;19508;42.578;23.416;2023-07-24T02:17:03;21.33;;;11.00;;
33150;SDS011;19508;42.578;23.416;2023-07-24T02:19:28;20.52;;;11.35;;
33150;SDS011;19508;42.578;23.416;2023-07-24T02:21:54;23.67;;;10.93;;
33150;SDS011;19508;42.578;23.416;2023-07-24T02:24:19;23.08;;;11.20;;
33150;SDS011;19508;42.578;23.416;2023-07-24T02:26:44;20.52;;;10.52;;
33150;SDS011;19508;42.578;23.416;2023-07-24T02:29:10;20.35;;;11.35;;
33150;SDS011;19508;42.578;23.416;2023-07-24T02:31:35;24.55;;;12.30;;
33150;SDS011;19508;42.578;23.416;2023-07-24T02:34:01;25.33;;;12.27;;
33150;SDS011;19508;42.578;23.416;2023-07-24T02:36:26;21.88;;;11.55;;
33150;SDS011;19508;42.578;23.416;2023-07-24T02:38:51;21.00;;;12.15;;
33150;SDS011;19508;42.578;23.416;2023-07-24T02:41:17;27.00;;;11.52;;
33150;SDS011;19508;42.578;23.416;2023-07-24T02:43:42;22.13;;;11.55;;
33150;SDS011;19508;42.578;23.416;2023-07-24T02:46:08;24.92;;;11.30;;
33150;SDS011;19508;42.578;23.416;2023-07-24T02:48:33;22.23;;;11.60;;
33150;SDS011;19508;42.578;23.416;2023-07-24T02:50:58;30.35;;;12.25;;
33150;SDS011;19508;42.578;23.416;2023-07-24T02:53:26;21.95;;;10.88;;
33150;SDS011;19508;42.578;23.416;2023-07-24T02:55:51;20.52;;;10.85;;
33150;SDS011;19508;42.578;23.416;2023-07-24T02:58:17;27.25;;;11.80;;
33150;SDS011;19508;42.578;23.416;2023-07-24T03:00:42;21.17;;;11.45;;
33150;SDS011;19508;42.578;23.416;2023-07-24T03:03:07;18.85;;;11.30;;
33150;SDS011;19508;42.578;23.416;2023-07-24T03:05:36;21.13;;;11.75;;
33150;SDS011;19508;42.578;23.416;2023-07-24T03:08:01;22.23;;;11.68;;
33150;SDS011;19508;42.578;23.416;2023-07-24T03:10:27;68.15;;;15.77;;
33150;SDS011;19508;42.578;23.416;2023-07-24T03:12:52;26.73;;;12.00;;
33150;SDS011;19508;42.578;23.416;2023-07-24T03:15:18;22.02;;;11.48;;
33150;SDS011;19508;42.578;23.416;2023-07-24T03:17:44;24.65;;;12.35;;
33150;SDS011;19508;42.578;23.416;2023-07-24T03:20:12;28.42;;;11.85;;
33150;SDS011;19508;42.578;23.416;2023-07-24T03:22:40;26.23;;;12.65;;
33150;SDS011;19508;42.578;23.416;2023-07-24T03:25:06;26.17;;;12.43;;
33150;SDS011;19508;42.578;23.416;2023-07-24T03:27:31;23.60;;;11.65;;
33150;SDS011;19508;42.578;23.416;2023-07-24T03:29:57;29.02;;;11.82;;
33150;SDS011;19508;42.578;23.416;2023-07-24T03:32:22;26.13;;;11.73;;
33150;SDS011;19508;42.578;23.416;2023-07-24T03:34:47;24.48;;;12.27;;
33150;SDS011;19508;42.578;23.416;2023-07-24T03:37:13;26.80;;;12.98;;
33150;SDS011;19508;42.578;23.416;2023-07-24T03:39:38;26.20;;;11.90;;
33150;SDS011;19508;42.578;23.416;2023-07-24T03:42:04;26.98;;;11.73;;
33150;SDS011;19508;42.578;23.416;2023-07-24T03:44:29;25.17;;;12.35;;
33150;SDS011;19508;42.578;23.416;2023-07-24T03:46:54;23.60;;;12.27;;
33150;SDS011;19508;42.578;23.416;2023-07-24T03:49:20;22.83;;;11.85;;
33150;SDS011;19508;42.578;23.416;2023-07-24T03:51:47;21.40;;;11.80;;
33150;SDS011;19508;42.578;23.416;2023-07-24T03:54:12;23.55;;;12.25;;
33150;SDS011;19508;42.578;23.416;2023-07-24T03:56:38;28.95;;;13.10;;
33150;SDS011;19508;42.578;23.416;2023-07-24T03:59:04;25.73;;;12.80;;
33150;SDS011;19508;42.578;23.416;2023-07-24T04:01:30;24.75;;;12.38;;
33150;SDS011;19508;42.578;23.416;2023-07-24T04:03:56;26.75;;;14.10;;
33150;SDS011;19508;42.578;23.416;2023-07-24T04:06:22;27.25;;;13.68;;
33150;SDS011;19508;42.578;23.416;2023-07-24T04:08:48;33.03;;;14.85;;
33150;SDS011;19508;42.578;23.416;2023-07-24T04:11:13;30.85;;;14.93;;
33150;SDS011;19508;42.578;23.416;2023-07-24T04:13:39;30.40;;;14.52;;
33150;SDS011;19508;42.578;23.416;2023-07-24T04:16:04;27.33;;;13.90;;
33150;SDS011;19508;42.578;23.416;2023-07-24T04:18:30;25.42;;;13.35;;
33150;SDS011;19508;42.578;23.416;2023-07-24T04:20:55;28.65;;;15.02;;
33150;SDS011;19508;42.578;23.416;2023-07-24T04:23:21;27.05;;;13.02;;
33150;SDS011;19508;42.578;23.416;2023-07-24T04:25:49;27.05;;;13.32;;
33150;SDS011;19508;42.578;23.416;2023-07-24T04:28:15;22.92;;;13.10;;
33150;SDS011;19508;42.578;23.416;2023-07-24T04:30:40;23.23;;;12.45;;
33150;SDS011;19508;42.578;23.416;2023-07-24T04:33:06;26.40;;;12.90;;
33150;SDS011;19508;42.578;23.416;2023-07-24T04:35:31;25.77;;;12.52;;
33150;SDS011;19508;42.578;23.416;2023-07-24T04:37:56;23.17;;;12.45;;
33150;SDS011;19508;42.578;23.416;2023-07-24T04:40:22;22.45;;;12.35;;
33150;SDS011;19508;42.578;23.416;2023-07-24T04:42:48;25.15;;;12.38;;
33150;SDS011;19508;42.578;23.416;2023-07-24T04:45:14;28.23;;;12.45;;
33150;SDS011;19508;42.578;23.416;2023-07-24T04:47:39;24.30;;;12.43;;
33150;SDS011;19508;42.578;23.416;2023-07-24T04:50:05;22.33;;;11.95;;
33150;SDS011;19508;42.578;23.416;2023-07-24T04:52:30;24.98;;;13.68;;
33150;SDS011;19508;42.578;23.416;2023-07-24T04:54:56;26.58;;;13.15;;
33150;SDS011;19508;42.578;23.416;2023-07-24T04:57:21;24.73;;;12.75;;
33150;SDS011;19508;42.578;23.416;2023-07-24T04:59:47;26.23;;;13.63;;
33150;SDS011;19508;42.578;23.416;2023-07-24T05:02:12;24.67;;;13.25;;
33150;SDS011;19508;42.578;23.416;2023-07-24T05:04:37;23.95;;;12.82;;
33150;SDS011;19508;42.578;23.416;2023-07-24T05:07:03;23.40;;;13.38;;
33150;SDS011;19508;42.578;23.416;2023-07-24T05:09:28;28.35;;;12.43;;
33150;SDS011;19508;42.578;23.416;2023-07-24T05:11:54;22.65;;;11.48;;
33150;SDS011;19508;42.578;23.416;2023-07-24T05:14:19;21.08;;;12.32;;
33150;SDS011;19508;42.578;23.416;2023-07-24T05:16:44;20.73;;;12.27;;
33150;SDS011;19508;42.578;23.416;2023-07-24T05:19:10;26.48;;;12.77;;
33150;SDS011;19508;42.578;23.416;2023-07-24T05:21:35;23.50;;;11.07;;
33150;SDS011;19508;42.578;23.416;2023-07-24T05:24:01;18.65;;;11.45;;
33150;SDS011;19508;42.578;23.416;2023-07-24T05:26:26;22.00;;;11.73;;
33150;SDS011;19508;42.578;23.416;2023-07-24T05:28:51;24.33;;;11.00;;
33150;SDS011;19508;42.578;23.416;2023-07-24T05:31:18;21.45;;;12.50;;
33150;SDS011;19508;42.578;23.416;2023-07-24T05:33:43;21.10;;;11.82;;
33150;SDS011;19508;42.578;23.416;2023-07-24T05:36:09;20.80;;;11.90;;
33150;SDS011;19508;42.578;23.416;2023-07-24T05:38:34;23.98;;;12.52;;
33150;SDS011;19508;42.578;23.416;2023-07-24T05:41:00;22.73;;;12.45;;
33150;SDS011;19508;42.578;23.416;2023-07-24T05:43:27;23.35;;;12.27;;
33150;SDS011;19508;42.578;23.416;2023-07-24T05:45:53;21.35;;;12.38;;
33150;SDS011;19508;42.578;23.416;2023-07-24T05:48:20;22.63;;;12.07;;
33150;SDS011;19508;42.578;23.416;2023-07-24T05:50:46;20.05;;;11.98;;
33150;SDS011;19508;42.578;23.416;2023-07-24T05:53:12;23.33;;;12.70;;
33150;SDS011;19508;42.578;23.416;2023-07-24T05:55:38;25.67;;;12.50;;
33150;SDS011;19508;42.578;23.416;2023-07-24T05:58:03;21.15;;;12.43;;
33150;SDS011;19508;42.578;23.416;2023-07-24T06:00:28;24.63;;;13.13;;
33150;SDS011;19508;42.578;23.416;2023-07-24T06:02:54;25.75;;;13.13;;
33150;SDS011;19508;42.578;23.416;2023-07-24T06:05:20;23.88;;;13.30;;
33150;SDS011;19508;42.578;23.416;2023-07-24T06:07:45;20.83;;;12.73;;
33150;SDS011;19508;42.578;23.416;2023-07-24T06:10:11;24.10;;;13.13;;
33150;SDS011;19508;42.578;23.416;2023-07-24T06:12:37;20.10;;;12.15;;
33150;SDS011;19508;42.578;23.416;2023-07-24T06:15:03;21.55;;;12.95;;
33150;SDS011;19508;42.578;23.416;2023-07-24T06:17:29;23.90;;;12.35;;
33150;SDS011;19508;42.578;23.416;2023-07-24T06:19:55;20.58;;;11.70;;
33150;SDS011;19508;42.578;23.416;2023-07-24T06:22:20;19.60;;;11.70;;
33150;SDS011;19508;42.578;23.416;2023-07-24T06:24:45;21.40;;;12.32;;
33150;SDS011;19508;42.578;23.416;2023-07-24T06:27:11;23.88;;;12.90;;
33150;SDS011;19508;42.578;23.416;2023-07-24T06:29:36;19.55;;;11.85;;
33150;SDS011;19508;42.578;23.416;2023-07-24T06:32:01;19.70;;;12.15;;
33150;SDS011;19508;42.578;23.416;2023-07-24T06:34:28;19.77;;;12.00;;
33150;SDS011;19508;42.578;23.416;2023-07-24T06:36:53;26.33;;;11.80;;
33150;SDS011;19508;42.578;23.416;2023-07-24T06:39:18;20.80;;;12.40;;
33150;SDS011;19508;42.578;23.416;2023-07-24T06:41:44;21.65;;;11.55;;
33150;SDS011;19508;42.578;23.416;2023-07-24T06:44:09;19.48;;;11.98;;
33150;SDS011;19508;42.578;23.416;2023-07-24T06:46:35;24.27;;;12.68;;
33150;SDS011;19508;42.578;23.416;2023-07-24T06:49:00;21.00;;;11.60;;
33150;SDS011;19508;42.578;23.416;2023-07-24T06:51:25;23.55;;;12.15;;
33150;SDS011;19508;42.578;23.416;2023-07-24T06:53:51;18.90;;;11.48;;
33150;SDS011;19508;42.578;23.416;2023-07-24T06:56:16;20.80;;;9.73;;
33150;SDS011;19508;42.578;23.416;2023-07-24T06:58:41;24.88;;;9.73;;
33150;SDS011;19508;42.578;23.416;2023-07-24T07:01:07;20.58;;;9.93;;
33150;SDS011;19508;42.578;23.416;2023-07-24T07:03:33;21.20;;;9.15;;
33150;SDS011;19508;42.578;23.416;2023-07-24T07:06:01;23.35;;;8.90;;
33150;SDS011;19508;42.578;23.416;2023-07-24T07:08:28;16.35;;;8.30;;
33150;SDS011;19508;42.578;23.416;2023-07-24T07:11:03;20.60;;;8.55;;
33150;SDS011;19508;42.578;23.416;2023-07-24T07:13:28;21.00;;;8.13;;
33150;SDS011;19508;42.578;23.416;2023-07-24T07:15:54;16.30;;;7.97;;
33150;SDS011;19508;42.578;23.416;2023-07-24T07:18:19;15.32;;;7.63;;
33150;SDS011;19508;42.578;23.416;2023-07-24T07:20:45;14.80;;;7.90;;
33150;SDS011;19508;42.578;23.416;2023-07-24T07:23:11;13.10;;;7.70;;
33150;SDS011;19508;42.578;23.416;2023-07-24T07:25:37;13.77;;;7.55;;
33150;SDS011;19508;42.578;23.416;2023-07-24T07:28:02;20.35;;;7.75;;
33150;SDS011;19508;42.578;23.416;2023-07-24T07:30:28;21.13;;;8.18;;
33150;SDS011;19508;42.578;23.416;2023-07-24T07:32:53;13.27;;;7.82;;
33150;SDS011;19508;42.578;23.416;2023-07-24T07:35:19;15.02;;;7.97;;
33150;SDS011;19508;42.578;23.416;2023-07-24T07:37:44;17.67;;;8.48;;
33150;SDS011;19508;42.578;23.416;2023-07-24T07:40:09;12.50;;;7.90;;
33150;SDS011;19508;42.578;23.416;2023-07-24T07:42:35;13.95;;;8.23;;
33150;SDS011;19508;42.578;23.416;2023-07-24T07:45:00;19.77;;;8.48;;
33150;SDS011;19508;42.578;23.416;2023-07-24T07:47:26;19.05;;;8.35;;
33150;SDS011;19508;42.578;23.416;2023-07-24T07:49:51;14.98;;;8.23;;
33150;SDS011;19508;42.578;23.416;2023-07-24T07:52:17;18.25;;;8.85;;
33150;SDS011;19508;42.578;23.416;2023-07-24T07:54:46;28.10;;;8.52;;
33150;SDS011;19508;42.578;23.416;2023-07-24T07:57:12;14.60;;;7.97;;
33150;SDS011;19508;42.578;23.416;2023-07-24T07:59:37;14.57;;;9.73;;
33150;SDS011;19508;42.578;23.416;2023-07-24T08:02:03;14.02;;;8.52;;
33150;SDS011;19508;42.578;23.416;2023-07-24T08:04:28;18.25;;;8.55;;
33150;SDS011;19508;42.578;23.416;2023-07-24T08:06:54;26.63;;;8.63;;
33150;SDS011;19508;42.578;23.416;2023-07-24T08:09:19;21.67;;;8.57;;
33150;SDS011;19508;42.578;23.416;2023-07-24T08:11:46;33.83;;;9.25;;
33150;SDS011;19508;42.578;23.416;2023-07-24T08:14:12;18.00;;;9.70;;
33150;SDS011;19508;42.578;23.416;2023-07-24T08:16:37;13.77;;;8.98;;
33150;SDS011;19508;42.578;23.416;2023-07-24T08:19:03;15.32;;;8.90;;
33150;SDS011;19508;42.578;23.416;2023-07-24T08:21:28;17.40;;;9.32;;
33150;SDS011;19508;42.578;23.416;2023-07-24T08:23:54;18.63;;;8.88;;
33150;SDS011;19508;42.578;23.416;2023-07-24T08:26:19;20.05;;;9.70;;
33150;SDS011;19508;42.578;23.416;2023-07-24T08:28:44;13.93;;;8.60;;
33150;SDS011;19508;42.578;23.416;2023-07-24T08:31:10;20.80;;;9.95;;
33150;SDS011;19508;42.578;23.416;2023-07-24T08:33:35;15.93;;;9.00;;
33150;SDS011;19508;42.578;23.416;2023-07-24T08:36:02;23.05;;;9.75;;
33150;SDS011;19508;42.578;23.416;2023-07-24T08:38:31;16.92;;;8.93;;
33150;SDS011;19508;42.578;23.416;2023-07-24T08:41:01;19.20;;;8.68;;
33150;SDS011;19508;42.578;23.416;2023-07-24T08:43:27;12.88;;;8.02;;
33150;SDS011;19508;42.578;23.416;2023-07-24T08:45:54;16.40;;;8.82;;
33150;SDS011;19508;42.578;23.416;2023-07-24T08:48:20;19.42;;;9.70;;
33150;SDS011;19508;42.578;23.416;2023-07-24T08:50:47;16.08;;;9.02;;
33150;SDS011;19508;42.578;23.416;2023-07-24T08:53:17;13.75;;;8.43;;
33150;SDS011;19508;42.578;23.416;2023-07-24T08:55:44;14.52;;;8.63;;
33150;SDS011;19508;42.578;23.416;2023-07-24T08:58:13;26.65;;;8.55;;
33150;SDS011;19508;42.578;23.416;2023-07-24T09:00:39;20.05;;;8.82;;
33150;SDS011;19508;42.578;23.416;2023-07-24T09:03:04;13.65;;;9.13;;
33150;SDS011;19508;42.578;23.416;2023-07-24T09:05:30;21.48;;;7.93;;
33150;SDS011;19508;42.578;23.416;2023-07-24T09:07:56;28.23;;;8.63;;
33150;SDS011;19508;42.578;23.416;2023-07-24T09:10:27;18.23;;;8.52;;
33150;SDS011;19508;42.578;23.416;2023-07-24T09:12:53;19.95;;;9.52;;
33150;SDS011;19508;42.578;23.416;2023-07-24T09:15:19;16.95;;;9.32;;
33150;SDS011;19508;42.578;23.416;2023-07-24T09:17:49;20.05;;;9.00;;
33150;SDS011;19508;42.578;23.416;2023-07-24T09:20:18;12.98;;;8.55;;
33150;SDS011;19508;42.578;23.416;2023-07-24T09:22:48;18.17;;;9.52;;
33150;SDS011;19508;42.578;23.416;2023-07-24T09:25:17;26.10;;;9.23;;
33150;SDS011;19508;42.578;23.416;2023-07-24T09:27:43;17.70;;;9.15;;
33150;SDS011;19508;42.578;23.416;2023-07-24T09:30:13;20.85;;;9.63;;
33150;SDS011;19508;42.578;23.416;2023-07-24T09:32:39;23.03;;;8.97;;
33150;SDS011;19508;42.578;23.416;2023-07-24T09:35:15;17.98;;;8.95;;
33150;SDS011;19508;42.578;23.416;2023-07-24T09:37:43;16.80;;;9.90;;
33150;SDS011;19508;42.578;23.416;2023-07-24T09:40:09;17.08;;;9.93;;
33150;SDS011;19508;42.578;23.416;2023-07-24T09:42:35;17.55;;;10.02;;
33150;SDS011;19508;42.578;23.416;2023-07-24T09:45:02;22.60;;;10.73;;
33150;SDS011;19508;42.578;23.416;2023-07-24T09:47:28;24.67;;;10.45;;
33150;SDS011;19508;42.578;23.416;2023-07-24T09:49:54;23.73;;;11.25;;
33150;SDS011;19508;42.578;23.416;2023-07-24T09:52:20;21.05;;;10.75;;
33150;SDS011;19508;42.578;23.416;2023-07-24T09:57:49;26.27;;;11.68;;
33150;SDS011;19508;42.578;23.416;2023-07-24T10:00:19;20.73;;;10.30;;
33150;SDS011;19508;42.578;23.416;2023-07-24T10:02:45;22.27;;;10.85;;
33150;SDS011;19508;42.578;23.416;2023-07-24T10:05:12;34.72;;;11.35;;
33150;SDS011;19508;42.578;23.416;2023-07-24T10:07:37;24.30;;;11.38;;
33150;SDS011;19508;42.578;23.416;2023-07-24T10:10:03;26.80;;;11.00;;
33150;SDS011;19508;42.578;23.416;2023-07-24T10:12:29;20.75;;;11.82;;
33150;SDS011;19508;42.578;23.416;2023-07-24T10:14:57;17.50;;;11.25;;
33150;SDS011;19508;42.578;23.416;2023-07-24T10:17:39;23.33;;;11.52;;
33150;SDS011;19508;42.578;23.416;2023-07-24T10:20:07;24.52;;;11.50;;
33150;SDS011;19508;42.578;23.416;2023-07-24T10:22:36;24.60;;;11.00;;
33150;SDS011;19508;42.578;23.416;2023-07-24T10:25:06;25.58;;;11.65;;
33150;SDS011;19508;42.578;23.416;2023-07-24T10:27:35;20.52;;;12.13;;
33150;SDS011;19508;42.578;23.416;2023-07-24T10:30:01;31.30;;;12.73;;
33150;SDS011;19508;42.578;23.416;2023-07-24T10:32:28;22.55;;;11.80;;
33150;SDS011;19508;42.578;23.416;2023-07-24T10:35:06;27.75;;;11.30;;
33150;SDS011;19508;42.578;23.416;2023-07-24T10:37:34;24.17;;;11.20;;
33150;SDS011;19508;42.578;23.416;2023-07-24T10:40:00;27.15;;;11.02;;
33150;SDS011;19508;42.578;23.416;2023-07-24T10:42:26;19.67;;;10.50;;
33150;SDS011;19508;42.578;23.416;2023-07-24T10:45:07;20.98;;;10.68;;
33150;SDS011;19508;42.578;23.416;2023-07-24T10:47:33;26.13;;;11.43;;
33150;SDS011;19508;42.578;23.416;2023-07-24T10:49:58;25.95;;;11.05;;
33150;SDS011;19508;42.578;23.416;2023-07-24T10:52:32;28.05;;;10.57;;
33150;SDS011;19508;42.578;23.416;2023-07-24T10:55:04;17.55;;;9.70;;
33150;SDS011;19508;42.578;23.416;2023-07-24T10:57:30;22.35;;;9.95;;
33150;SDS011;19508;42.578;23.416;2023-07-24T10:59:56;16.83;;;9.90;;
33150;SDS011;19508;42.578;23.416;2023-07-24T11:02:21;17.48;;;9.70;;
33150;SDS011;19508;42.578;23.416;2023-07-24T11:04:47;25.13;;;10.00;;
33150;SDS011;19508;42.578;23.416;2023-07-24T11:07:13;19.75;;;10.27;;
33150;SDS011;19508;42.578;23.416;2023-07-24T11:09:39;26.95;;;9.98;;
33150;SDS011;19508;42.578;23.416;2023-07-24T11:12:12;25.27;;;10.70;;
33150;SDS011;19508;42.578;23.416;2023-07-24T11:14:48;26.58;;;10.23;;
33150;SDS011;19508;42.578;23.416;2023-07-24T11:17:14;16.60;;;10.43;;
33150;SDS011;19508;42.578;23.416;2023-07-24T11:19:40;21.92;;;9.80;;
33150;SDS011;19508;42.578;23.416;2023-07-24T11:22:06;26.50;;;9.23;;
33150;SDS011;19508;42.578;23.416;2023-07-24T11:24:32;21.70;;;8.75;;
33150;SDS011;19508;42.578;23.416;2023-07-24T11:26:57;29.38;;;9.43;;
33150;SDS011;19508;42.578;23.416;2023-07-24T11:29:23;27.35;;;9.73;;
33150;SDS011;19508;42.578;23.416;2023-07-24T11:31:53;23.92;;;8.77;;
33150;SDS011;19508;42.578;23.416;2023-07-24T11:34:19;24.45;;;8.45;;
33150;SDS011;19508;42.578;23.416;2023-07-24T11:36:45;19.73;;;8.98;;
33150;SDS011;19508;42.578;23.416;2023-07-24T11:39:11;21.48;;;9.10;;
33150;SDS011;19508;42.578;23.416;2023-07-24T11:41:36;20.48;;;8.95;;
33150;SDS011;19508;42.578;23.416;2023-07-24T11:44:02;19.20;;;8.35;;
33150;SDS011;19508;42.578;23.416;2023-07-24T11:46:28;26.73;;;8.50;;
33150;SDS011;19508;42.578;23.416;2023-07-24T11:48:56;28.20;;;8.30;;
33150;SDS011;19508;42.578;23.416;2023-07-24T11:51:22;21.45;;;8.05;;
33150;SDS011;19508;42.578;23.416;2023-07-24T11:53:50;21.20;;;8.02;;
33150;SDS011;19508;42.578;23.416;2023-07-24T11:56:17;23.15;;;8.77;;
33150;SDS011;19508;42.578;23.416;2023-07-24T11:58:44;22.90;;;7.80;;
33150;SDS011;19508;42.578;23.416;2023-07-24T12:01:10;23.92;;;8.15;;
33150;SDS011;19508;42.578;23.416;2023-07-24T12:03:38;17.38;;;8.32;;
33150;SDS011;19508;42.578;23.416;2023-07-24T12:06:03;17.52;;;8.10;;
33150;SDS011;19508;42.578;23.416;2023-07-24T12:08:33;24.55;;;8.48;;
33150;SDS011;19508;42.578;23.416;2023-07-24T12:10:59;20.88;;;7.85;;
33150;SDS011;19508;42.578;23.416;2023-07-24T12:13:25;21.10;;;7.90;;
33150;SDS011;19508;42.578;23.416;2023-07-24T12:15:50;20.00;;;7.95;;
33150;SDS011;19508;42.578;23.416;2023-07-24T12:18:16;17.65;;;7.07;;
33150;SDS011;19508;42.578;23.416;2023-07-24T12:20:41;22.63;;;8.23;;
33150;SDS011;19508;42.578;23.416;2023-07-24T12:23:07;20.20;;;7.00;;
33150;SDS011;19508;42.578;23.416;2023-07-24T12:25:32;27.25;;;8.32;;
33150;SDS011;19508;42.578;23.416;2023-07-24T12:27:58;17.58;;;7.15;;
33150;SDS011;19508;42.578;23.416;2023-07-24T12:30:23;20.30;;;7.10;;
33150;SDS011;19508;42.578;23.416;2023-07-24T12:32:48;22.10;;;7.45;;
33150;SDS011;19508;42.578;23.416;2023-07-24T12:35:14;17.70;;;7.00;;
33150;SDS011;19508;42.578;23.416;2023-07-24T12:37:40;25.30;;;7.35;;
33150;SDS011;19508;42.578;23.416;2023-07-24T12:40:07;21.98;;;7.97;;
33150;SDS011;19508;42.578;23.416;2023-07-24T12:42:33;16.65;;;7.50;;
33150;SDS011;19508;42.578;23.416;2023-07-24T12:44:59;15.30;;;7.70;;
33150;SDS011;19508;42.578;23.416;2023-07-24T12:47:24;17.83;;;7.90;;
33150;SDS011;19508;42.578;23.416;2023-07-24T12:49:50;16.90;;;7.88;;
33150;SDS011;19508;42.578;23.416;2023-07-24T12:52:17;20.73;;;7.45;;
33150;SDS011;19508;42.578;23.416;2023-07-24T12:54:42;17.38;;;7.65;;
33150;SDS011;19508;42.578;23.416;2023-07-24T12:57:08;20.95;;;7.68;;
33150;SDS011;19508;42.578;23.416;2023-07-24T12:59:33;14.43;;;6.68;;
33150;SDS011;19508;42.578;23.416;2023-07-24T13:01:59;21.10;;;7.35;;
33150;SDS011;19508;42.578;23.416;2023-07-24T13:04:24;13.93;;;7.10;;
33150;SDS011;19508;42.578;23.416;2023-07-24T13:06:50;12.45;;;6.80;;
33150;SDS011;19508;42.578;23.416;2023-07-24T13:09:15;18.13;;;7.10;;
33150;SDS011;19508;42.578;23.416;2023-07-24T13:11:40;19.17;;;7.22;;
33150;SDS011;19508;42.578;23.416;2023-07-24T13:14:06;14.20;;;6.80;;
33150;SDS011;19508;42.578;23.416;2023-07-24T13:16:31;22.77;;;7.38;;
33150;SDS011;19508;42.578;23.416;2023-07-24T13:18:58;14.02;;;6.55;;
33150;SDS011;19508;42.578;23.416;2023-07-24T13:21:23;15.50;;;6.95;;
33150;SDS011;19508;42.578;23.416;2023-07-24T13:23:49;17.52;;;6.63;;
33150;SDS011;19508;42.578;23.416;2023-07-24T13:26:14;14.32;;;7.10;;
33150;SDS011;19508;42.578;23.416;2023-07-24T13:28:41;23.08;;;7.95;;
33150;SDS011;19508;42.578;23.416;2023-07-24T13:31:16;23.30;;;7.53;;
33150;SDS011;19508;42.578;23.416;2023-07-24T13:33:45;11.75;;;7.25;;
33150;SDS011;19508;42.578;23.416;2023-07-24T13:36:11;22.38;;;7.80;;
33150;SDS011;19508;42.578;23.416;2023-07-24T13:38:37;13.40;;;7.68;;
33150;SDS011;19508;42.578;23.416;2023-07-24T13:41:02;19.63;;;8.70;;
33150;SDS011;19508;42.578;23.416;2023-07-24T13:43:29;16.05;;;7.78;;
33150;SDS011;19508;42.578;23.416;2023-07-24T13:45:55;15.10;;;7.97;;
33150;SDS011;19508;42.578;23.416;2023-07-24T13:48:21;13.25;;;8.02;;
33150;SDS011;19508;42.578;23.416;2023-07-24T13:50:47;12.32;;;7.68;;
33150;SDS011;19508;42.578;23.416;2023-07-24T13:53:12;18.88;;;7.82;;
33150;SDS011;19508;42.578;23.416;2023-07-24T13:55:38;14.70;;;7.22;;
33150;SDS011;19508;42.578;23.416;2023-07-24T13:58:03;20.08;;;7.60;;
33150;SDS011;19508;42.578;23.416;2023-07-24T14:00:29;14.50;;;7.47;;
33150;SDS011;19508;42.578;23.416;2023-07-24T14:02:54;15.52;;;8.05;;
33150;SDS011;19508;42.578;23.416;2023-07-24T14:05:20;21.63;;;8.25;;
33150;SDS011;19508;42.578;23.416;2023-07-24T14:07:45;19.58;;;7.85;;
33150;SDS011;19508;42.578;23.416;2023-07-24T14:10:10;13.90;;;7.88;;
33150;SDS011;19508;42.578;23.416;2023-07-24T14:12:36;13.40;;;6.90;;
33150;SDS011;19508;42.578;23.416;2023-07-24T14:15:02;14.85;;;7.60;;
33150;SDS011;19508;42.578;23.416;2023-07-24T14:17:29;18.02;;;8.63;;